ESGJ Airport Information

Runway Information
Runway 01 Length 7228 ft width 148 ft
Elevation 733 ft Threshold 0 ft Heading 18
Runway 19 Length 7228 ft Width 148 ft
Elevation 739 ft Threshold 0 ft Heading 198
Runway 11 Length 1969 ft width 82 ft
Elevation 727 ft Threshold 0 ft Heading 114
Runway 29 Length 1969 ft Width 82 ft
Elevation 738 ft Threshold 0 ft Heading 294
Airport Frequencies
Type TWR Name TWR Frequency 118.25 MHZ
Airport Navaids
Type VOR-DME Name Jonkoping Frequency 115800 KHZ
Airport Weather Information & NOTAM
ADDS - METARS form results

(0819 UTC 23 October 2021)
Data provider http://aviationweather.gov/metar/data/
 
METAR text: ESGJ 230750Z AUTO 31004KT 280V350 9999 NCD 04/00 Q1013
Conditions at: ESGJ (JONKOPING AIRPOR, SE) observed 0750 UTC 23 October 2021
Temperature: 4.0°C (39°F)
Dewpoint: 0.0°C (32°F) [RH = 75%]
Pressure (altimeter): 29.91 inches Hg (1013.0 mb)
Winds: from the NW (310 degrees) at 5 MPH (4 knots; 2.1 m/s)
Visibility: 6 or more miles (10+ km)
Ceiling: at least 12,000 feet AGL
Clouds: sky clear below 12,000 feet AGL
Weather: no significant weather observed at this time

METAR text: ESGJ 230720Z AUTO 33003KT 9999 NCD 03/00 Q1012
Conditions at: ESGJ (JONKOPING AIRPOR, SE) observed 0720 UTC 23 October 2021
Temperature: 3.0°C (37°F)
Dewpoint: 0.0°C (32°F) [RH = 81%]
Pressure (altimeter): 29.88 inches Hg (1012.0 mb)
Winds: from the NNW (330 degrees) at 3 MPH (3 knots; 1.5 m/s)
Visibility: 6 or more miles (10+ km)
Ceiling: at least 12,000 feet AGL
Clouds: sky clear below 12,000 feet AGL
Weather: no significant weather observed at this time